• Join FlightAware (Why Join?)
  • Login
  • US Flag 
Gobble Gobble! 
09:27AM EST


 

Airport Tracker/Info


-or-


 

Live Flight TrackerFlight Track Log ✈ UAL532 ✈ 16-Jun-2013 ✈ KDEN - KORD

Flight Track Log - Related Links

Times and Time Zones

All times are in EDT time to prevent confusion due to time zone crossing. See the UAL532 flight status page for this flight to view local times or setup timezone preferences in your user account.

Time Position Orientation Groundspeed Altitude Reporting Facility
EDT Latitude Longitude Course Direction KTS MPH feet Rate Location/Type
08:05AM 39.8833 -104.5667 72° East 201 231 6,900  Level Denver TRACON
08:06AM 39.8667 -104.4833 105° East 264 304 8,600 1,740 Climbing Denver TRACON
08:07AM 39.8667 -104.2188 90° East  Level FlightAware Approximate
08:07AM 39.8769 -104.3844 82° East 280 322 10,400  Level Denver Center
08:08AM 39.8667 -104.0691 90° East  Level FlightAware Approximate
08:08AM 39.8783 -104.2603 89° East 339 390 11,500  Level Denver Center
08:09AM 39.8667 -103.9194 90° East  Level FlightAware Approximate
08:09AM 39.8794 -104.1178 89° East 402 463 13,100  Level Denver Center
08:10AM 39.8739 -103.7712 72° East  Level FlightAware Approximate
08:10AM 39.8808 -103.9711 89° East 408 470 15,300  Level Denver Center
08:11AM 39.8831 -103.8053 89° East 429 494 17,200 1,680 Climbing Denver Center
08:12AM 39.8903 -103.6622 86° East 422 486 18,700 1,500 Climbing Denver Center
08:13AM 39.9103 -103.4997 81° East 449 517 20,300 1,620 Climbing Denver Center
08:14AM 39.9294 -103.3339 81° East 463 533 22,000 1,500 Climbing Denver Center
08:15AM 39.9481 -103.1639 82° East 473 544 23,300 1,200 Climbing Denver Center
08:16AM 39.9675 -102.9903 82° East 484 557 24,500 1,140 Climbing Denver Center
08:17AM 39.9869 -102.8108 82° East 498 573 25,600 960 Climbing Denver Center
08:18AM 40.0064 -102.6286 82° East 506 582 26,500 1,080 Climbing Denver Center
08:19AM 40.0281 -102.4217 82° East 516 594 27,800 1,140 Climbing Denver Center
08:20AM 40.0461 -102.2442 82° East 517 595 28,900 1,080 Climbing Denver Center
08:21AM 40.0647 -102.0642 82° East 523 602 30,000 1,140 Climbing Denver Center
08:22AM 40.0822 -101.8844 83° East 523 602 31,200 1,200 Climbing Denver Center
08:23AM 40.1033 -101.6742 82° East 525 604 32,500 840 Climbing Denver Center
08:24AM 40.1208 -101.4925 83° East 528 608 33,000 240 Climbing Denver Center
08:25AM 40.1381 -101.3078 83° East 534 615 33,000  Level Denver Center
08:26AM 40.1581 -101.0922 83° East 537 618 33,000  Level Denver Center
08:27AM 40.1753 -100.9086 83° East 536 617 33,000  Level Denver Center
08:28AM 40.1919 -100.7253 83° East 535 616 33,000  Level Denver Center
08:29AM 40.2194 -100.5111 80° East 538 619 33,000  Level Denver Center
08:30AM 40.2575 -100.3317 74° East 538 619 33,000  Level Denver Center
08:31AM 40.2936 -100.1517 75° East 538 619 33,000  Level Denver Center
08:32AM 40.3358 -99.9406 75° East 539 620 33,000  Level Denver Center
08:33AM 40.3706 -99.7650 75° East 535 616 33,000  Level Denver Center
08:34AM 40.4008 -99.6164 75° East 536 617 33,000  Level Minneapolis Center
08:35AM 40.4367 -99.4297 76° East 534 615 33,000  Level Minneapolis Center
08:36AM 40.4808 -99.2039 76° East 533 613 33,000  Level Minneapolis Center
08:37AM 40.5167 -99.0156 76° East 534 615 33,000  Level Minneapolis Center
08:38AM 40.5511 -98.8278 76° East 533 613 33,000  Level Minneapolis Center
08:39AM 40.5861 -98.6408 76° East 531 611 33,000  Level Minneapolis Center
08:40AM 40.6203 -98.4525 77° East 532 612 33,000  Level Minneapolis Center
08:41AM 40.6561 -98.2631 76° East 535 616 33,000  Level Minneapolis Center
08:42AM 40.6897 -98.0739 77° East 535 616 33,000  Level Minneapolis Center
08:43AM 40.7250 -97.8817 76° East 540 621 33,000  Level Minneapolis Center
08:44AM 40.7592 -97.6883 77° East 542 624 33,000  Level Minneapolis Center
08:45AM 40.7919 -97.4947 77° East 544 626 33,000  Level Minneapolis Center
08:46AM 40.8286 -97.2922 76° East 543 625 33,000  Level Minneapolis Center
08:47AM 40.8619 -97.0989 77° East 542 624 33,000 600 Level Minneapolis Center
08:48AM 40.8953 -96.9108 77° East 531 611 34,300 960 Climbing Minneapolis Center
08:49AM 40.9269 -96.6878 79° East 520 598 35,000 300 Climbing Minneapolis Center
08:50AM 40.9378 -96.4953 86° East 526 605 35,000  Level Minneapolis Center
08:51AM 40.9503 -96.3028 85° East 528 608 35,000  Level Minneapolis Center
08:52AM 40.9617 -96.1122 85° East 527 606 35,000  Level Minneapolis Center
08:53AM 40.9722 -95.9222 86° East 525 604 35,000  Level Minneapolis Center
08:54AM 40.9833 -95.7319 86° East 525 604 35,000  Level Minneapolis Center
08:55AM 40.9936 -95.5392 86° East 527 606 35,000  Level Minneapolis Center
08:56AM 41.0047 -95.3481 86° East 526 605 35,000  Level Minneapolis Center
08:57AM 41.0142 -95.1586 86° East 522 601 35,000  Level Minneapolis Center
08:58AM 41.0253 -94.9311 86° East 520 598 35,000  Level Minneapolis Center
08:59AM 41.0344 -94.7414 86° East 518 596 35,000  Level Minneapolis Center
09:00AM 41.0419 -94.5603 87° East 519 597 35,000  Level Minneapolis Center
09:01AM 41.0500 -94.3697 87° East 522 601 35,000  Level Minneapolis Center
09:02AM 41.0581 -94.1797 87° East 522 601 35,000  Level Minneapolis Center
09:03AM 41.0653 -93.9875 87° East 524 603 35,100 480 Climbing Minneapolis Center
09:04AM 41.0728 -93.7972 87° East 522 601 36,000 900 Climbing Minneapolis Center
09:05AM 41.0825 -93.5672 87° East 523 602 37,000 480 Climbing Minneapolis Center
09:06AM 41.0903 -93.3775 87° East 520 598 37,000  Level Minneapolis Center
09:07AM 41.0956 -93.1850 88° East 524 603 37,000  Level Minneapolis Center
09:08AM 41.1006 -93.0669 87° East 524 603 37,000  Level Chicago Center
09:09AM 41.1067 -92.8725 88° East 528 608 37,000  Level Chicago Center
09:10AM 41.1125 -92.6781 88° East 530 610 37,000  Level Chicago Center
09:11AM 41.1178 -92.4839 88° East 530 610 37,000  Level Chicago Center
09:12AM 41.1225 -92.2908 88° East 528 608 37,000  Level Chicago Center
09:13AM 41.1275 -92.0961 88° East 530 610 37,000  Level Chicago Center
09:14AM 41.1331 -91.8614 88° East 531 611 37,000  Level Chicago Center
09:15AM 41.1369 -91.6669 88° East 531 611 37,000 -300 Level Chicago Center
09:16AM 41.1400 -91.4992 89° East 531 611 36,500 -840 Descending Chicago Center
09:17AM 41.1453 -91.2636 88° East 532 612 35,400 -1,020 Descending Chicago Center
09:18AM 41.1475 -91.0714 89° East 524 603 34,400 -1,020 Descending Chicago Center
09:19AM 41.1492 -90.8836 89° East 511 588 33,400 -780 Descending Chicago Center
09:20AM 41.1517 -90.6908 89° East 519 597 32,900 -1,740 Descending Chicago Center
09:21AM 41.1544 -90.4944 89° East 530 610 29,900 -2,520 Descending Chicago Center
09:22AM 41.1567 -90.3011 89° East 523 602 27,800 -2,520 Descending Chicago Center
09:23AM 41.1881 -90.1197 77° East 507 583 24,800 -1,860 Descending Chicago Center
09:25AM 41.2292 -89.9442 73° East 498 573 24,000 -420 Descending Chicago Center
09:26AM 41.2728 -89.7586 73° East 516 594 24,000 -540 Level Chicago Center
09:27AM 41.3161 -89.5714 73° East 526 605 23,000 -1,860 Descending Chicago Center
09:28AM 41.3653 -89.3606 73° East 504 580 20,200 -2,520 Descending Chicago Center
09:29AM 41.4025 -89.1981 73° East 462 532 17,900 -2,220 Descending Chicago Center
09:30AM 41.4358 -89.0467 74° East 443 510 15,700 -2,280 Descending Chicago Center
09:31AM 41.4700 -88.8947 73° East 430 495 13,300 -2,280 Descending Chicago Center
09:32AM 41.5025 -88.7492 73° East 413 475 11,100 -1,140 Descending Chicago Center
09:33AM 41.5472 -88.6175 66° East 389 448 11,000 -60 Descending Chicago Center
09:34AM 41.6083 -88.4689 61° Northeast 380 437 11,000  Level Chicago Center
09:35AM 41.6731 -88.3567 52° Northeast 378 435 11,000 -480 Level Chicago Center
09:36AM 41.7381 -88.2447 52° Northeast 379 436 10,100 -540 Descending Chicago Center
09:37AM 41.8025 -88.1350 52° Northeast 374 430 10,000 -120 Descending Chicago Center
09:38AM 41.8608 -88.0297 53° Northeast 351 404 9,900 -900 Descending Chicago Center
09:39AM 41.8833 -87.9333 73° East 323 372 8,400 -1,680 Descending Chicago TRACON
09:40AM 41.8833 -87.8333 90° East 308 354 7,100 -1,320 Descending Chicago TRACON
09:40AM 41.8831 -87.8058 91° East 314 361 6,800 -1,260 Descending Chicago Center
09:41AM 41.8828 -87.6933 90° East 306 352 5,400 -900 Descending Chicago Center
09:42AM 41.8833 -87.5581 90° East 303 349 5,000 -240 Descending Chicago Center
09:43AM 41.8836 -87.4472 90° East 301 346 5,000  Level Chicago Center
09:44AM 41.9114 -87.3742 63° Northeast 248 285 5,000 -60 Level Chicago Center
09:45AM 41.9544 -87.4128 326° Northwest 209 241 4,900  Descending Chicago Center
09:46AM 41.9681 -87.4894 283° West 214 246 5,000  Climbing Chicago Center
09:47AM 41.9681 -87.5678 270° West 214 246 5,000  Level Chicago Center